createdAt,value
2019-05-01T00:00:24.221Z,65.60
2019-05-01T00:02:56.968Z,65.70
2019-05-01T00:05:28.411Z,65.80
2019-05-01T00:07:58.035Z,65.80
2019-05-01T00:10:27.956Z,66.10
2019-05-01T00:12:57.670Z,65.90
2019-05-01T00:15:29.200Z,65.90
2019-05-01T00:17:58.931Z,65.60
2019-05-01T00:20:28.743Z,65.90
2019-05-01T00:22:59.032Z,65.60
2019-05-01T00:25:28.754Z,65.60
2019-05-01T00:27:58.325Z,65.30
2019-05-01T00:30:30.379Z,65.50
2019-05-01T00:33:00.056Z,65.90
2019-05-01T00:35:29.770Z,66.20
2019-05-01T00:37:59.402Z,66.10
2019-05-01T00:40:29.088Z,65.60
2019-05-01T00:42:58.731Z,65.50
2019-05-01T00:45:28.277Z,65.50
2019-05-01T00:47:57.928Z,65.40
2019-05-01T00:50:27.511Z,65.50
2019-05-01T00:52:57.135Z,65.10
2019-05-01T00:55:40.283Z,65.10
2019-05-01T00:58:20.610Z,65.00
2019-05-01T01:01:08.070Z,65.10
2019-05-01T01:03:38.769Z,64.70
2019-05-01T01:06:09.507Z,64.70
2019-05-01T01:08:39.065Z,65.00
2019-05-01T01:11:08.927Z,64.90
2019-05-01T01:13:38.556Z,64.90
2019-05-01T01:16:08.262Z,64.70
2019-05-01T01:18:37.821Z,64.60
2019-05-01T01:21:07.449Z,64.50
2019-05-01T01:23:37.375Z,64.30
2019-05-01T01:26:07.172Z,64.60
2019-05-01T01:28:36.930Z,65.00
2019-05-01T01:31:06.435Z,65.10
2019-05-01T01:33:36.062Z,65.30
2019-05-01T01:36:05.688Z,65.00
2019-05-01T01:38:35.335Z,64.80
2019-05-01T01:41:05.149Z,64.90
2019-05-01T01:43:39.358Z,65.10
2019-05-01T01:46:27.397Z,65.10
2019-05-01T01:48:57.583Z,64.80
2019-05-01T01:51:27.951Z,64.80
2019-05-01T01:53:58.960Z,64.60
2019-05-01T01:56:28.656Z,64.90
2019-05-01T01:58:58.458Z,64.80
2019-05-01T02:01:32.556Z,64.70
2019-05-01T02:04:06.544Z,64.70
2019-05-01T02:06:36.400Z,64.70
2019-05-01T02:09:07.913Z,64.90
2019-05-01T02:11:39.365Z,64.50
2019-05-01T02:14:09.064Z,64.60
2019-05-01T02:16:38.608Z,64.80
2019-05-01T02:19:08.251Z,64.70
2019-05-01T02:21:37.916Z,64.70
2019-05-01T02:24:07.527Z,64.40
2019-05-01T02:26:39.078Z,64.40
2019-05-01T02:29:10.460Z,64.50
2019-05-01T02:31:45.123Z,64.40
2019-05-01T02:34:16.125Z,64.50
2019-05-01T02:36:47.519Z,64.60
2019-05-01T02:39:19.077Z,64.60
2019-05-01T02:41:51.802Z,64.30
2019-05-01T02:44:30.321Z,64.50
2019-05-01T02:47:03.147Z,64.70
2019-05-01T02:49:35.725Z,65.10
2019-05-01T02:52:08.039Z,65.40
2019-05-01T02:54:39.053Z,65.40
2019-05-01T02:57:14.442Z,65.00
2019-05-01T02:59:47.232Z,65.00
2019-05-01T03:02:17.674Z,65.10
2019-05-01T03:04:47.887Z,65.10
2019-05-01T03:07:18.143Z,65.00
2019-05-01T03:09:49.129Z,65.20
2019-05-01T03:12:21.777Z,65.30
2019-05-01T03:14:54.584Z,65.30
2019-05-01T03:17:42.403Z,65.30
2019-05-01T03:20:14.678Z,65.20
2019-05-01T03:22:45.887Z,65.50
2019-05-01T03:25:15.632Z,65.00
2019-05-01T03:27:45.515Z,65.40
2019-05-01T03:30:15.289Z,65.10
2019-05-01T03:32:45.449Z,65.30
2019-05-01T03:35:15.368Z,65.40
2019-05-01T03:37:45.199Z,65.30
2019-05-01T03:40:15.199Z,65.50
2019-05-01T03:42:45.148Z,65.90
2019-05-01T03:45:15.237Z,66.30
2019-05-01T03:47:45.487Z,66.60
2019-05-01T03:50:15.271Z,66.40
2019-05-01T03:52:45.084Z,66.20
2019-05-01T03:55:14.983Z,65.90
2019-05-01T03:57:44.608Z,65.90
2019-05-01T04:00:18.736Z,66.00
2019-05-01T04:02:50.093Z,66.00
2019-05-01T04:05:19.849Z,66.00
2019-05-01T04:07:49.487Z,66.10
2019-05-01T04:10:19.298Z,66.40
2019-05-01T04:12:49.211Z,66.60
2019-05-01T04:15:18.934Z,66.40
2019-05-01T04:17:50.313Z,66.40
2019-05-01T04:20:20.389Z,66.40
2019-05-01T04:22:50.201Z,66.50
2019-05-01T04:25:20.117Z,66.20
2019-05-01T04:27:51.567Z,65.90
2019-05-01T04:30:28.852Z,65.70
2019-05-01T04:33:00.417Z,65.60
2019-05-01T04:35:49.742Z,65.60
2019-05-01T04:38:19.698Z,65.40
2019-05-01T04:40:49.631Z,65.00
2019-05-01T04:43:19.405Z,64.70
2019-05-01T04:45:49.448Z,64.90
2019-05-01T04:48:19.249Z,64.80
2019-05-01T04:50:49.042Z,64.70
2019-05-01T04:53:18.986Z,64.70
2019-05-01T04:55:48.690Z,64.90
2019-05-01T04:58:18.513Z,65.10
2019-05-01T05:00:48.519Z,64.70
2019-05-01T05:03:22.404Z,64.50
2019-05-01T05:05:51.958Z,64.40
2019-05-01T05:08:22.055Z,64.20
2019-05-01T05:10:53.709Z,63.90
2019-05-01T05:13:25.154Z,63.80
2019-05-01T05:15:59.511Z,63.90
2019-05-01T05:18:29.413Z,63.70
2019-05-01T05:20:59.833Z,63.30
2019-05-01T05:23:30.067Z,63.30
2019-05-01T05:26:00.187Z,63.10
2019-05-01T05:28:31.381Z,63.20
2019-05-01T05:31:01.964Z,63.90
2019-05-01T05:33:34.074Z,62.60
2019-05-01T05:36:05.470Z,62.60
2019-05-01T05:38:41.761Z,62.20
2019-05-01T05:41:11.937Z,61.70
2019-05-01T05:43:41.787Z,61.40
2019-05-01T05:46:12.194Z,60.70
2019-05-01T05:48:43.052Z,57.00
2019-05-01T05:51:22.049Z,56.80
2019-05-01T05:53:55.069Z,56.70
2019-05-01T05:56:28.410Z,55.80
2019-05-01T05:59:02.344Z,56.50
2019-05-01T06:01:44.538Z,56.70
2019-05-01T06:04:18.745Z,57.00
2019-05-01T06:06:57.752Z,57.30
2019-05-01T06:09:32.190Z,55.20
2019-05-01T06:12:12.908Z,55.10
2019-05-01T06:14:48.952Z,54.10
2019-05-01T06:17:29.857Z,54.00
2019-05-01T06:20:20.788Z,53.90
2019-05-01T06:23:08.304Z,54.90
2019-05-01T06:25:44.807Z,56.50
2019-05-01T06:28:15.110Z,55.60
2019-05-01T06:30:47.030Z,54.30
2019-05-01T06:33:16.104Z,42.10
2019-05-01T06:35:45.835Z,33.70
2019-05-01T06:38:17.359Z,29.40
2019-05-01T06:40:53.149Z,27.60
2019-05-01T06:43:39.864Z,28.00
2019-05-01T06:46:12.802Z,27.90
2019-05-01T06:48:53.430Z,27.80
2019-05-01T06:51:35.218Z,28.80
2019-05-01T06:54:11.177Z,27.10
2019-05-01T06:56:38.815Z,26.60
2019-05-01T06:59:09.105Z,26.50
2019-05-01T07:01:39.439Z,25.80
2019-05-01T07:04:09.151Z,24.70
2019-05-01T07:06:38.994Z,24.70
2019-05-01T07:09:11.845Z,24.00
2019-05-01T07:11:47.471Z,22.10
2019-05-01T07:14:16.413Z,21.90
2019-05-01T07:16:46.467Z,20.50
2019-05-01T07:19:17.780Z,19.50
2019-05-01T07:21:47.400Z,18.80
2019-05-01T07:24:18.222Z,19.40
2019-05-01T07:26:49.159Z,18.70
2019-05-01T07:29:23.030Z,18.50
2019-05-01T07:31:52.751Z,17.50
2019-05-01T07:34:26.221Z,17.70
2019-05-01T07:36:53.682Z,17.20
2019-05-01T07:39:23.315Z,17.00
2019-05-01T07:41:54.662Z,18.20
2019-05-01T07:44:30.067Z,18.70
2019-05-01T07:47:10.775Z,18.90
2019-05-01T07:49:52.866Z,19.00
2019-05-01T07:52:21.859Z,18.50
2019-05-01T07:54:52.180Z,19.00
2019-05-01T07:57:23.122Z,19.10
2019-05-01T07:59:53.221Z,20.00
2019-05-01T08:02:25.922Z,19.20
2019-05-01T08:04:54.309Z,19.80
2019-05-01T08:07:27.777Z,19.10
2019-05-01T08:09:55.119Z,18.90
2019-05-01T08:12:25.874Z,18.50
2019-05-01T08:14:56.760Z,19.80
2019-05-01T08:17:28.087Z,19.20
2019-05-01T08:19:59.293Z,19.90
2019-05-01T08:22:32.044Z,19.40
2019-05-01T08:25:01.716Z,19.80
2019-05-01T08:27:50.915Z,20.50
2019-05-01T08:30:30.794Z,22.00
2019-05-01T08:33:05.030Z,24.90
2019-05-01T08:35:36.399Z,28.30
2019-05-01T08:38:06.629Z,31.20
2019-05-01T08:40:37.342Z,32.80
2019-05-01T08:43:07.070Z,34.00
2019-05-01T08:45:44.943Z,34.00
2019-05-01T08:48:25.232Z,35.20
2019-05-01T08:50:59.209Z,34.80
2019-05-01T08:53:27.551Z,33.90
2019-05-01T08:55:57.261Z,34.30
2019-05-01T08:58:26.848Z,33.70
2019-05-01T09:00:56.346Z,34.30
2019-05-01T09:03:25.984Z,34.70
2019-05-01T09:05:57.531Z,34.00
2019-05-01T09:08:31.504Z,34.40
2019-05-01T09:11:00.229Z,34.40
2019-05-01T09:13:29.432Z,33.40
2019-05-01T09:15:59.313Z,33.50
2019-05-01T09:18:28.873Z,34.50
2019-05-01T09:20:58.531Z,34.60
2019-05-01T09:23:28.243Z,34.70
2019-05-01T09:26:14.815Z,35.30
2019-05-01T09:29:01.402Z,35.70
2019-05-01T09:31:33.990Z,35.60
2019-05-01T09:34:05.488Z,34.00
2019-05-01T09:36:35.500Z,35.20
2019-05-01T09:39:06.775Z,35.50
2019-05-01T09:41:38.308Z,35.00
2019-05-01T09:44:10.699Z,34.80
2019-05-01T09:46:40.268Z,34.70
2019-05-01T09:49:14.191Z,37.10
2019-05-01T09:52:01.138Z,36.00
2019-05-01T09:54:32.360Z,38.10
2019-05-01T09:57:02.812Z,38.30
2019-05-01T09:59:32.449Z,35.10
2019-05-01T10:02:02.929Z,37.10
2019-05-01T10:04:33.427Z,37.00
2019-05-01T10:07:03.007Z,35.20
2019-05-01T10:09:32.661Z,35.40
2019-05-01T10:12:02.379Z,31.90
2019-05-01T10:14:36.265Z,33.80
2019-05-01T10:17:03.261Z,35.70
2019-05-01T10:19:32.879Z,32.90
2019-05-01T10:22:03.786Z,32.80
2019-05-01T10:24:37.497Z,35.70
2019-05-01T10:27:06.572Z,34.70
2019-05-01T10:29:56.990Z,34.80
2019-05-01T10:32:27.906Z,33.50
2019-05-01T10:35:01.689Z,34.80
2019-05-01T10:37:33.876Z,34.50
2019-05-01T10:40:02.823Z,33.00
2019-05-01T10:42:32.512Z,35.20
2019-05-01T10:45:02.107Z,35.20
2019-05-01T10:47:31.754Z,35.00
2019-05-01T10:50:01.376Z,33.80
2019-05-01T10:52:32.308Z,32.70
2019-05-01T10:55:01.803Z,33.60
2019-05-01T10:57:35.207Z,34.00
2019-05-01T11:00:02.711Z,34.00
2019-05-01T11:02:33.535Z,33.40
2019-05-01T11:05:03.238Z,34.60
2019-05-01T11:07:32.806Z,32.70
2019-05-01T11:10:02.470Z,32.70
2019-05-01T11:12:32.201Z,33.30
2019-05-01T11:15:02.609Z,32.50
2019-05-01T11:17:32.313Z,33.00
2019-05-01T11:20:02.335Z,33.50
2019-05-01T11:22:35.455Z,33.10
2019-05-01T11:25:07.120Z,31.70
2019-05-01T11:27:38.252Z,31.50
2019-05-01T11:30:08.271Z,31.90
2019-05-01T11:32:39.533Z,30.90
2019-05-01T11:35:16.684Z,32.10
2019-05-01T11:37:48.025Z,33.20
2019-05-01T11:40:34.422Z,31.90
2019-05-01T11:43:04.338Z,31.30
2019-05-01T11:45:34.152Z,31.30
2019-05-01T11:48:03.917Z,31.50
2019-05-01T11:50:33.955Z,30.90
2019-05-01T11:53:03.637Z,30.10
2019-05-01T11:55:33.667Z,30.10
2019-05-01T11:58:03.520Z,31.00
2019-05-01T12:00:33.151Z,31.60
2019-05-01T12:03:02.735Z,30.00
2019-05-01T12:05:34.973Z,31.00
2019-05-01T12:08:04.680Z,30.50
2019-05-01T12:10:34.465Z,29.30
2019-05-01T12:13:04.245Z,28.00
2019-05-01T12:15:34.050Z,29.00
2019-05-01T12:18:04.819Z,29.20
2019-05-01T12:20:36.133Z,28.40
2019-05-01T12:23:05.761Z,29.20
2019-05-01T12:25:35.565Z,28.30
2019-05-01T12:28:05.178Z,29.00
2019-05-01T12:30:35.246Z,28.80
2019-05-01T12:33:04.994Z,28.80
2019-05-01T12:35:34.551Z,29.70
2019-05-01T12:38:05.134Z,29.70
2019-05-01T12:40:34.774Z,30.30
2019-05-01T12:43:04.557Z,28.40
2019-05-01T12:45:35.903Z,29.30
2019-05-01T12:48:05.720Z,28.80
2019-05-01T12:50:35.408Z,28.80
2019-05-01T12:53:06.714Z,28.90
2019-05-01T12:55:50.052Z,28.70
2019-05-01T12:58:19.561Z,29.20
2019-05-01T13:00:54.478Z,29.80
2019-05-01T13:03:24.053Z,29.30
2019-05-01T13:05:53.655Z,28.50
2019-05-01T13:08:23.226Z,29.50
2019-05-01T13:10:53.390Z,30.00
2019-05-01T13:13:23.022Z,29.70
2019-05-01T13:15:52.642Z,29.40
2019-05-01T13:18:22.277Z,29.40
2019-05-01T13:20:56.342Z,29.10
2019-05-01T13:23:23.194Z,29.90
2019-05-01T13:25:54.863Z,30.00
2019-05-01T13:28:43.895Z,29.90
2019-05-01T13:31:21.248Z,29.70
2019-05-01T13:33:50.890Z,29.90
2019-05-01T13:36:20.491Z,29.40
2019-05-01T13:38:50.189Z,29.60
2019-05-01T13:41:19.918Z,29.10
2019-05-01T13:43:50.526Z,29.90
2019-05-01T13:46:20.255Z,30.30
2019-05-01T13:48:50.391Z,30.00
2019-05-01T13:51:19.984Z,29.90
2019-05-01T13:53:49.532Z,29.80
2019-05-01T13:56:19.376Z,31.00
2019-05-01T13:58:50.338Z,30.30
2019-05-01T14:01:20.257Z,29.60
2019-05-01T14:03:50.471Z,29.90
2019-05-01T14:06:20.211Z,30.60
2019-05-01T14:08:49.890Z,29.70
2019-05-01T14:11:19.381Z,29.50
2019-05-01T14:13:49.087Z,30.30
2019-05-01T14:16:18.799Z,29.20
2019-05-01T14:18:48.426Z,29.90
2019-05-01T14:21:32.479Z,30.70
2019-05-01T14:24:20.165Z,30.60
2019-05-01T14:26:49.790Z,30.70
2019-05-01T14:29:19.524Z,30.20
2019-05-01T14:31:49.240Z,30.30
2019-05-01T14:34:18.877Z,29.30
2019-05-01T14:36:48.496Z,30.80
2019-05-01T14:39:18.061Z,30.50
2019-05-01T14:41:47.804Z,29.90
2019-05-01T14:44:17.399Z,30.10
2019-05-01T14:46:47.090Z,31.10
2019-05-01T14:49:16.653Z,31.40
2019-05-01T14:51:46.341Z,30.00
2019-05-01T14:54:15.885Z,30.00
2019-05-01T14:56:46.664Z,29.90
2019-05-01T14:59:16.352Z,31.10
2019-05-01T15:01:47.298Z,30.20
2019-05-01T15:04:17.244Z,31.40
2019-05-01T15:06:46.905Z,31.30
2019-05-01T15:09:16.530Z,30.00
2019-05-01T15:11:46.350Z,30.30
2019-05-01T15:14:17.571Z,29.30
2019-05-01T15:16:51.632Z,29.30
2019-05-01T15:19:22.951Z,29.60
2019-05-01T15:21:52.575Z,29.80
2019-05-01T15:24:22.124Z,31.10
2019-05-01T15:26:53.409Z,29.50
2019-05-01T15:29:22.962Z,30.20
2019-05-01T15:31:52.730Z,30.20
2019-05-01T15:34:22.333Z,30.50
2019-05-01T15:36:52.053Z,31.30
2019-05-01T15:39:23.244Z,31.10
2019-05-01T15:42:03.759Z,32.10
2019-05-01T15:44:34.950Z,31.60
2019-05-01T15:47:05.104Z,31.40
2019-05-01T15:49:35.037Z,30.50
2019-05-01T15:52:04.956Z,30.70
2019-05-01T15:54:34.671Z,31.60
2019-05-01T15:57:04.986Z,32.10
2019-05-01T15:59:34.688Z,31.20
2019-05-01T16:02:04.511Z,31.80
2019-05-01T16:04:34.068Z,31.00
2019-05-01T16:07:03.728Z,30.80
2019-05-01T16:09:33.544Z,32.70
2019-05-01T16:12:16.669Z,31.60
2019-05-01T16:14:46.787Z,30.50
2019-05-01T16:17:16.500Z,30.90
2019-05-01T16:19:46.342Z,30.60
2019-05-01T16:22:15.875Z,31.90
2019-05-01T16:24:45.530Z,32.60
2019-05-01T16:27:15.096Z,31.80
2019-05-01T16:29:44.843Z,31.90
2019-05-01T16:32:14.563Z,32.00
2019-05-01T16:34:44.260Z,32.50
2019-05-01T16:37:13.890Z,32.20
2019-05-01T16:39:50.751Z,33.00
2019-05-01T16:42:20.708Z,33.50
2019-05-01T16:44:50.376Z,33.90
2019-05-01T16:47:20.008Z,33.70
2019-05-01T16:49:49.632Z,33.90
2019-05-01T16:52:21.078Z,33.80
2019-05-01T16:54:58.973Z,34.30
2019-05-01T16:57:21.956Z,34.60
2019-05-01T16:59:51.602Z,35.30
2019-05-01T17:02:41.135Z,35.40
2019-05-01T17:05:18.471Z,35.10
2019-05-01T17:07:49.678Z,36.60
2019-05-01T17:10:22.129Z,36.70
2019-05-01T17:12:54.446Z,36.70
2019-05-01T17:15:26.240Z,37.10
2019-05-01T17:17:55.810Z,37.10
2019-05-01T17:20:25.935Z,36.80
2019-05-01T17:22:55.895Z,36.70
2019-05-01T17:25:26.400Z,37.10
2019-05-01T17:27:57.788Z,37.30
2019-05-01T17:30:39.538Z,37.40
2019-05-01T17:33:09.485Z,37.30
2019-05-01T17:35:41.849Z,37.50
2019-05-01T17:38:10.445Z,38.00
2019-05-01T17:40:41.142Z,38.70
2019-05-01T17:43:15.483Z,39.50
2019-05-01T17:45:46.439Z,38.60
2019-05-01T17:48:16.210Z,39.40
2019-05-01T17:50:45.917Z,39.50
2019-05-01T17:53:15.562Z,41.80
2019-05-01T17:55:45.170Z,44.20
2019-05-01T17:58:14.692Z,45.90
2019-05-01T18:00:54.702Z,47.20
2019-05-01T18:03:42.321Z,49.50
2019-05-01T18:06:30.920Z,50.50
2019-05-01T18:09:03.304Z,50.30
2019-05-01T18:11:35.709Z,51.40
2019-05-01T18:14:05.999Z,52.20
2019-05-01T18:16:35.758Z,52.30
2019-05-01T18:19:09.775Z,53.00
2019-05-01T18:21:39.129Z,53.90
2019-05-01T18:24:26.913Z,54.30
2019-05-01T18:26:58.483Z,54.50
2019-05-01T18:29:44.647Z,55.80
2019-05-01T18:32:16.695Z,55.70
2019-05-01T18:34:46.437Z,56.10
2019-05-01T18:37:17.781Z,56.40
2019-05-01T18:39:48.347Z,56.80
2019-05-01T18:42:18.569Z,56.80
2019-05-01T18:44:48.902Z,56.70
2019-05-01T18:47:19.899Z,57.30
2019-05-01T18:49:49.777Z,57.70
2019-05-01T18:52:20.215Z,57.40
2019-05-01T18:54:49.857Z,57.40
2019-05-01T18:57:19.468Z,57.70
2019-05-01T18:59:49.373Z,57.90
2019-05-01T19:02:20.569Z,58.50
2019-05-01T19:04:50.329Z,57.70
2019-05-01T19:07:22.261Z,57.80
2019-05-01T19:09:53.501Z,57.80
2019-05-01T19:12:23.251Z,57.70
2019-05-01T19:14:54.604Z,57.70
2019-05-01T19:17:24.211Z,57.70
2019-05-01T19:19:55.861Z,57.80
2019-05-01T19:22:26.166Z,58.10
2019-05-01T19:24:57.226Z,58.50
2019-05-01T19:27:26.963Z,57.80
2019-05-01T19:29:57.997Z,57.60
2019-05-01T19:32:28.508Z,57.70
2019-05-01T19:34:58.591Z,57.60
2019-05-01T19:37:30.911Z,57.60
2019-05-01T19:40:00.924Z,57.80
2019-05-01T19:42:30.873Z,57.80
2019-05-01T19:45:01.651Z,57.80
2019-05-01T19:47:31.687Z,57.80
2019-05-01T19:50:07.256Z,57.90
2019-05-01T19:52:37.791Z,57.70
2019-05-01T19:55:08.687Z,58.00
2019-05-01T19:57:38.287Z,57.60
2019-05-01T20:00:08.383Z,57.70
2019-05-01T20:02:39.678Z,57.70
2019-05-01T20:05:11.180Z,57.80
2019-05-01T20:07:41.085Z,57.80
2019-05-01T20:10:11.164Z,58.20
2019-05-01T20:12:41.624Z,58.20
2019-05-01T20:15:11.473Z,58.00
2019-05-01T20:17:41.101Z,58.20
2019-05-01T20:20:11.061Z,58.30
2019-05-01T20:22:40.603Z,58.40
2019-05-01T20:25:10.336Z,58.30
2019-05-01T20:27:42.295Z,58.30
2019-05-01T20:30:11.495Z,58.30
2019-05-01T20:32:41.117Z,58.30
2019-05-01T20:35:11.241Z,58.10
2019-05-01T20:37:40.804Z,57.90
2019-05-01T20:40:11.639Z,58.00
2019-05-01T20:42:41.600Z,58.10
2019-05-01T20:45:17.517Z,58.10
2019-05-01T20:47:45.985Z,58.20
2019-05-01T20:50:14.248Z,58.10
2019-05-01T20:52:44.835Z,58.10
2019-05-01T20:55:14.891Z,58.40
2019-05-01T20:57:48.744Z,57.90
2019-05-01T21:00:20.787Z,57.80
2019-05-01T21:02:51.905Z,58.00
2019-05-01T21:05:23.258Z,57.60
2019-05-01T21:08:07.782Z,57.40
2019-05-01T21:10:50.724Z,57.20
2019-05-01T21:13:17.832Z,57.30
2019-05-01T21:15:47.549Z,57.70
2019-05-01T21:18:20.891Z,57.70
2019-05-01T21:20:48.499Z,57.60
2019-05-01T21:23:19.008Z,57.70
2019-05-01T21:25:49.562Z,57.90
2019-05-01T21:28:19.286Z,57.90
2019-05-01T21:30:48.939Z,57.80
2019-05-01T21:33:18.419Z,57.80
2019-05-01T21:35:48.010Z,57.60
2019-05-01T21:38:17.569Z,57.70
2019-05-01T21:40:47.142Z,57.90
2019-05-01T21:43:16.777Z,58.00
2019-05-01T21:45:46.337Z,57.90
2019-05-01T21:48:16.052Z,57.70
2019-05-01T21:50:45.661Z,58.10
2019-05-01T21:53:15.157Z,58.00
2019-05-01T21:55:44.980Z,58.10
2019-05-01T21:58:15.270Z,58.30
2019-05-01T22:00:45.298Z,58.40
2019-05-01T22:03:16.732Z,58.40
2019-05-01T22:05:46.583Z,58.40
2019-05-01T22:08:16.191Z,58.50
2019-05-01T22:10:52.191Z,58.40
2019-05-01T22:13:20.371Z,58.40
2019-05-01T22:16:05.724Z,58.70
2019-05-01T22:18:39.572Z,58.80
2019-05-01T22:21:25.940Z,59.00
2019-05-01T22:24:13.102Z,59.00
2019-05-01T22:26:44.309Z,59.30
2019-05-01T22:29:15.580Z,59.10
2019-05-01T22:31:57.548Z,59.30
2019-05-01T22:34:31.546Z,59.30
2019-05-01T22:37:01.318Z,59.10
2019-05-01T22:39:32.593Z,59.10
2019-05-01T22:42:02.297Z,59.00
2019-05-01T22:44:32.856Z,58.80
2019-05-01T22:47:02.745Z,58.40
2019-05-01T22:49:32.554Z,58.50
2019-05-01T22:52:02.263Z,59.00
2019-05-01T22:54:31.897Z,59.70
2019-05-01T22:57:01.512Z,60.20
2019-05-01T22:59:31.193Z,61.10
2019-05-01T23:02:02.465Z,63.20
2019-05-01T23:04:32.003Z,65.70
2019-05-01T23:07:01.700Z,66.40
2019-05-01T23:09:32.318Z,67.50
2019-05-01T23:12:02.017Z,67.30
2019-05-01T23:14:31.728Z,66.60
2019-05-01T23:17:11.964Z,65.90
2019-05-01T23:19:41.535Z,65.20
2019-05-01T23:22:11.304Z,64.90
2019-05-01T23:24:40.920Z,65.00
2019-05-01T23:27:10.415Z,66.60
2019-05-01T23:29:40.054Z,66.10
2019-05-01T23:32:09.716Z,66.60
2019-05-01T23:34:39.207Z,66.60
2019-05-01T23:37:08.899Z,67.40
2019-05-01T23:39:40.215Z,66.60
2019-05-01T23:42:09.810Z,66.10
2019-05-01T23:44:43.039Z,66.20
2019-05-01T23:47:10.842Z,65.60
2019-05-01T23:49:41.468Z,66.30
2019-05-01T23:52:11.104Z,66.50
2019-05-01T23:54:40.790Z,66.50
2019-05-01T23:57:10.446Z,66.60
2019-05-01T23:59:41.748Z,66.60
